sensor_id;sensor_type;location;lat;lon;timestamp;temperature;humidity
10129;DHT22;5104;50.720;7.044;2023-02-28T00:00:37;-0.90;99.90
10129;DHT22;5104;50.720;7.044;2023-02-28T00:03:05;-0.90;1.00
10129;DHT22;5104;50.720;7.044;2023-02-28T00:05:32;-0.90;99.90
10129;DHT22;5104;50.720;7.044;2023-02-28T00:07:59;-1.00;99.90
10129;DHT22;5104;50.720;7.044;2023-02-28T00:10:28;-0.90;99.90
10129;DHT22;5104;50.720;7.044;2023-02-28T00:13:01;-1.00;1.00
10129;DHT22;5104;50.720;7.044;2023-02-28T00:15:28;-0.90;99.90
10129;DHT22;5104;50.720;7.044;2023-02-28T00:17:55;-0.90;1.00
10129;DHT22;5104;50.720;7.044;2023-02-28T00:20:23;-0.90;99.90
10129;DHT22;5104;50.720;7.044;2023-02-28T00:22:54;-0.90;99.90
10129;DHT22;5104;50.720;7.044;2023-02-28T00:25:23;-0.90;99.90
10129;DHT22;5104;50.720;7.044;2023-02-28T00:27:51;-0.90;1.00
10129;DHT22;5104;50.720;7.044;2023-02-28T00:30:22;-1.00;1.00
10129;DHT22;5104;50.720;7.044;2023-02-28T00:32:49;-1.00;99.90
10129;DHT22;5104;50.720;7.044;2023-02-28T00:35:17;-1.10;99.90
10129;DHT22;5104;50.720;7.044;2023-02-28T00:37:44;-1.10;1.00
10129;DHT22;5104;50.720;7.044;2023-02-28T00:40:11;-1.10;1.00
10129;DHT22;5104;50.720;7.044;2023-02-28T00:42:39;-1.20;1.00
10129;DHT22;5104;50.720;7.044;2023-02-28T00:45:07;-1.30;1.00
10129;DHT22;5104;50.720;7.044;2023-02-28T00:47:36;-1.30;99.90
10129;DHT22;5104;50.720;7.044;2023-02-28T00:50:04;-1.30;92.00
10129;DHT22;5104;50.720;7.044;2023-02-28T00:52:31;-1.30;99.90
10129;DHT22;5104;50.720;7.044;2023-02-28T00:54:58;-1.30;1.00
10129;DHT22;5104;50.720;7.044;2023-02-28T00:57:25;-1.40;99.90
10129;DHT22;5104;50.720;7.044;2023-02-28T00:59:52;-1.40;1.00
10129;DHT22;5104;50.720;7.044;2023-02-28T01:02:20;-1.30;99.90
10129;DHT22;5104;50.720;7.044;2023-02-28T01:04:49;-1.30;1.00
10129;DHT22;5104;50.720;7.044;2023-02-28T01:07:15;-1.30;99.90
10129;DHT22;5104;50.720;7.044;2023-02-28T01:09:42;-1.30;1.00
10129;DHT22;5104;50.720;7.044;2023-02-28T01:12:09;-1.30;1.00
10129;DHT22;5104;50.720;7.044;2023-02-28T01:14:39;-1.20;1.00
10129;DHT22;5104;50.720;7.044;2023-02-28T01:17:06;-1.20;99.90
10129;DHT22;5104;50.720;7.044;2023-02-28T01:19:34;-1.20;1.00
10129;DHT22;5104;50.720;7.044;2023-02-28T01:22:04;-1.20;1.00
10129;DHT22;5104;50.720;7.044;2023-02-28T01:24:32;-1.30;99.90
10129;DHT22;5104;50.720;7.044;2023-02-28T01:26:59;-1.30;1.00
10129;DHT22;5104;50.720;7.044;2023-02-28T01:29:26;-1.30;99.90
10129;DHT22;5104;50.720;7.044;2023-02-28T01:31:53;-1.40;99.90
10129;DHT22;5104;50.720;7.044;2023-02-28T01:34:19;-1.40;1.00
10129;DHT22;5104;50.720;7.044;2023-02-28T01:36:47;-1.40;99.90
10129;DHT22;5104;50.720;7.044;2023-02-28T01:39:15;-1.40;1.00
10129;DHT22;5104;50.720;7.044;2023-02-28T01:41:43;-1.50;1.00
10129;DHT22;5104;50.720;7.044;2023-02-28T01:47:10;-1.50;1.00
10129;DHT22;5104;50.720;7.044;2023-02-28T01:49:38;-1.50;1.00
10129;DHT22;5104;50.720;7.044;2023-02-28T01:52:06;-1.60;99.90
10129;DHT22;5104;50.720;7.044;2023-02-28T01:54:35;-1.60;99.90
10129;DHT22;5104;50.720;7.044;2023-02-28T01:57:05;-1.60;1.00
10129;DHT22;5104;50.720;7.044;2023-02-28T01:59:36;-1.60;1.00
10129;DHT22;5104;50.720;7.044;2023-02-28T02:02:06;-1.60;99.90
10129;DHT22;5104;50.720;7.044;2023-02-28T02:04:38;-1.60;1.00
10129;DHT22;5104;50.720;7.044;2023-02-28T02:07:07;-1.60;1.00
10129;DHT22;5104;50.720;7.044;2023-02-28T02:09:36;-1.70;99.90
10129;DHT22;5104;50.720;7.044;2023-02-28T02:12:07;-1.70;1.00
10129;DHT22;5104;50.720;7.044;2023-02-28T02:14:47;-1.70;1.00
10129;DHT22;5104;50.720;7.044;2023-02-28T02:17:26;-1.70;30.30
10129;DHT22;5104;50.720;7.044;2023-02-28T02:20:21;-1.70;95.20
10129;DHT22;5104;50.720;7.044;2023-02-28T02:29:45;-1.70;1.00
10129;DHT22;5104;50.720;7.044;2023-02-28T02:32:49;-1.70;1.00
10129;DHT22;5104;50.720;7.044;2023-02-28T02:35:28;-1.60;1.00
10129;DHT22;5104;50.720;7.044;2023-02-28T02:38:02;-1.60;99.90
10129;DHT22;5104;50.720;7.044;2023-02-28T02:40:35;-1.70;1.00
10129;DHT22;5104;50.720;7.044;2023-02-28T02:43:08;-1.80;1.00
10129;DHT22;5104;50.720;7.044;2023-02-28T02:45:40;-1.90;1.00
10129;DHT22;5104;50.720;7.044;2023-02-28T02:48:11;-1.90;99.90
10129;DHT22;5104;50.720;7.044;2023-02-28T02:50:43;-1.90;99.90
10129;DHT22;5104;50.720;7.044;2023-02-28T02:53:12;-2.00;1.00
10129;DHT22;5104;50.720;7.044;2023-02-28T02:55:43;-2.00;19.00
10129;DHT22;5104;50.720;7.044;2023-02-28T02:58:14;-1.90;99.90
10129;DHT22;5104;50.720;7.044;2023-02-28T03:00:45;-2.00;1.00
10129;DHT22;5104;50.720;7.044;2023-02-28T03:03:13;-2.00;99.90
10129;DHT22;5104;50.720;7.044;2023-02-28T03:05:46;-2.00;99.90
10129;DHT22;5104;50.720;7.044;2023-02-28T03:08:15;-1.90;1.00
10129;DHT22;5104;50.720;7.044;2023-02-28T03:10:43;-1.90;57.00
10129;DHT22;5104;50.720;7.044;2023-02-28T03:22:18;-2.10;99.90
10129;DHT22;5104;50.720;7.044;2023-02-28T03:24:49;-2.20;1.00
10129;DHT22;5104;50.720;7.044;2023-02-28T03:27:23;-2.20;99.90
10129;DHT22;5104;50.720;7.044;2023-02-28T03:29:53;-2.30;1.00
10129;DHT22;5104;50.720;7.044;2023-02-28T03:32:25;-2.30;99.90
10129;DHT22;5104;50.720;7.044;2023-02-28T03:34:57;-2.30;1.00
10129;DHT22;5104;50.720;7.044;2023-02-28T03:37:29;-2.40;1.00
10129;DHT22;5104;50.720;7.044;2023-02-28T03:39:59;-2.30;99.90
10129;DHT22;5104;50.720;7.044;2023-02-28T03:42:29;-2.30;99.90
10129;DHT22;5104;50.720;7.044;2023-02-28T03:45:00;-2.30;44.00
10129;DHT22;5104;50.720;7.044;2023-02-28T03:47:31;-2.20;1.00
10129;DHT22;5104;50.720;7.044;2023-02-28T03:50:03;-2.30;1.00
10129;DHT22;5104;50.720;7.044;2023-02-28T03:52:36;-2.30;99.90
10129;DHT22;5104;50.720;7.044;2023-02-28T03:55:09;-2.30;99.90
10129;DHT22;5104;50.720;7.044;2023-02-28T03:57:40;-2.40;1.00
10129;DHT22;5104;50.720;7.044;2023-02-28T04:00:11;-2.40;1.00
10129;DHT22;5104;50.720;7.044;2023-02-28T04:02:39;-2.40;1.00
10129;DHT22;5104;50.720;7.044;2023-02-28T04:05:06;-2.40;99.90
10129;DHT22;5104;50.720;7.044;2023-02-28T04:07:35;-2.50;99.90
10129;DHT22;5104;50.720;7.044;2023-02-28T04:12:30;-2.50;99.90
10129;DHT22;5104;50.720;7.044;2023-02-28T04:14:57;-2.50;1.00
10129;DHT22;5104;50.720;7.044;2023-02-28T04:17:23;-2.50;1.00
10129;DHT22;5104;50.720;7.044;2023-02-28T04:19:50;-2.50;1.00
10129;DHT22;5104;50.720;7.044;2023-02-28T04:22:17;-2.40;1.00
10129;DHT22;5104;50.720;7.044;2023-02-28T04:24:46;-2.30;1.00
10129;DHT22;5104;50.720;7.044;2023-02-28T04:27:12;-2.30;1.00
10129;DHT22;5104;50.720;7.044;2023-02-28T04:29:41;-2.30;1.00
10129;DHT22;5104;50.720;7.044;2023-02-28T04:32:10;-2.30;99.90
10129;DHT22;5104;50.720;7.044;2023-02-28T04:34:37;-2.40;1.00
10129;DHT22;5104;50.720;7.044;2023-02-28T04:37:04;-2.40;1.00
10129;DHT22;5104;50.720;7.044;2023-02-28T04:39:36;-2.40;99.90
10129;DHT22;5104;50.720;7.044;2023-02-28T04:42:04;-2.40;1.00
10129;DHT22;5104;50.720;7.044;2023-02-28T04:44:31;-2.40;99.90
10129;DHT22;5104;50.720;7.044;2023-02-28T04:46:58;-2.50;1.00
10129;DHT22;5104;50.720;7.044;2023-02-28T04:49:25;-2.40;87.80
10129;DHT22;5104;50.720;7.044;2023-02-28T04:51:52;-2.50;1.00
10129;DHT22;5104;50.720;7.044;2023-02-28T04:54:19;-2.50;99.90
10129;DHT22;5104;50.720;7.044;2023-02-28T04:56:46;-2.60;1.00
10129;DHT22;5104;50.720;7.044;2023-02-28T04:59:16;-2.60;1.00
10129;DHT22;5104;50.720;7.044;2023-02-28T05:01:46;-2.60;99.90
10129;DHT22;5104;50.720;7.044;2023-02-28T05:04:13;-2.60;1.00
10129;DHT22;5104;50.720;7.044;2023-02-28T05:06:40;-2.70;1.00
10129;DHT22;5104;50.720;7.044;2023-02-28T05:09:07;-2.70;38.20
10129;DHT22;5104;50.720;7.044;2023-02-28T05:11:34;-2.60;1.00
10129;DHT22;5104;50.720;7.044;2023-02-28T05:14:01;-2.50;1.00
10129;DHT22;5104;50.720;7.044;2023-02-28T05:16:30;-2.60;99.90
10129;DHT22;5104;50.720;7.044;2023-02-28T05:18:57;-2.70;1.00
10129;DHT22;5104;50.720;7.044;2023-02-28T05:21:27;-2.70;99.90
10129;DHT22;5104;50.720;7.044;2023-02-28T05:23:55;-2.80;99.90
10129;DHT22;5104;50.720;7.044;2023-02-28T05:26:23;-2.80;1.00
10129;DHT22;5104;50.720;7.044;2023-02-28T05:28:50;-2.80;1.00
10129;DHT22;5104;50.720;7.044;2023-02-28T05:31:17;-2.90;1.00
10129;DHT22;5104;50.720;7.044;2023-02-28T05:33:46;-2.80;99.90
10129;DHT22;5104;50.720;7.044;2023-02-28T05:36:13;-2.70;1.00
10129;DHT22;5104;50.720;7.044;2023-02-28T05:38:40;-2.70;1.00
10129;DHT22;5104;50.720;7.044;2023-02-28T05:41:08;-2.70;99.90
10129;DHT22;5104;50.720;7.044;2023-02-28T05:43:35;-2.70;1.00
10129;DHT22;5104;50.720;7.044;2023-02-28T05:46:04;-2.70;1.00
10129;DHT22;5104;50.720;7.044;2023-02-28T05:48:32;-2.70;1.00
10129;DHT22;5104;50.720;7.044;2023-02-28T05:51:00;-2.70;1.00
10129;DHT22;5104;50.720;7.044;2023-02-28T05:53:28;-2.80;19.10
10129;DHT22;5104;50.720;7.044;2023-02-28T05:55:55;-2.80;1.00
10129;DHT22;5104;50.720;7.044;2023-02-28T05:58:23;-2.70;39.40
10129;DHT22;5104;50.720;7.044;2023-02-28T06:00:50;-2.80;1.00
10129;DHT22;5104;50.720;7.044;2023-02-28T06:03:17;-2.90;1.00
10129;DHT22;5104;50.720;7.044;2023-02-28T06:05:44;-2.90;99.90
10129;DHT22;5104;50.720;7.044;2023-02-28T06:08:12;-2.90;99.90
10129;DHT22;5104;50.720;7.044;2023-02-28T06:10:39;-2.90;99.90
10129;DHT22;5104;50.720;7.044;2023-02-28T06:13:06;-2.90;41.30
10129;DHT22;5104;50.720;7.044;2023-02-28T06:15:33;-2.90;99.90
10129;DHT22;5104;50.720;7.044;2023-02-28T06:18:00;-2.90;99.90
10129;DHT22;5104;50.720;7.044;2023-02-28T06:20:27;-2.80;1.00
10129;DHT22;5104;50.720;7.044;2023-02-28T06:22:55;-2.90;1.00
10129;DHT22;5104;50.720;7.044;2023-02-28T06:25:25;-2.80;1.00
10129;DHT22;5104;50.720;7.044;2023-02-28T06:27:53;-2.80;99.90
10129;DHT22;5104;50.720;7.044;2023-02-28T06:30:20;-2.80;1.00
10129;DHT22;5104;50.720;7.044;2023-02-28T06:32:50;-2.80;1.00
10129;DHT22;5104;50.720;7.044;2023-02-28T06:35:17;-2.70;1.00
10129;DHT22;5104;50.720;7.044;2023-02-28T06:37:44;-2.70;1.00
10129;DHT22;5104;50.720;7.044;2023-02-28T06:40:13;-2.80;99.90
10129;DHT22;5104;50.720;7.044;2023-02-28T06:42:41;-2.80;1.00
10129;DHT22;5104;50.720;7.044;2023-02-28T06:45:09;-2.70;1.00
10129;DHT22;5104;50.720;7.044;2023-02-28T06:47:36;-2.70;99.90
10129;DHT22;5104;50.720;7.044;2023-02-28T06:50:04;-2.60;1.00
10129;DHT22;5104;50.720;7.044;2023-02-28T06:52:31;-2.60;1.00
10129;DHT22;5104;50.720;7.044;2023-02-28T06:54:58;-2.60;1.00
10129;DHT22;5104;50.720;7.044;2023-02-28T06:57:27;-2.50;99.90
10129;DHT22;5104;50.720;7.044;2023-02-28T06:59:58;-2.40;99.90
10129;DHT22;5104;50.720;7.044;2023-02-28T07:02:25;-2.30;1.00
10129;DHT22;5104;50.720;7.044;2023-02-28T07:04:52;-2.30;1.00
10129;DHT22;5104;50.720;7.044;2023-02-28T07:07:19;-2.20;99.90
10129;DHT22;5104;50.720;7.044;2023-02-28T07:09:46;-2.10;26.20
10129;DHT22;5104;50.720;7.044;2023-02-28T07:12:13;-2.10;1.00
10129;DHT22;5104;50.720;7.044;2023-02-28T07:14:40;-2.00;99.90
10129;DHT22;5104;50.720;7.044;2023-02-28T07:17:09;-1.80;1.00
10129;DHT22;5104;50.720;7.044;2023-02-28T07:19:37;-1.70;16.10
10129;DHT22;5104;50.720;7.044;2023-02-28T07:22:04;-1.60;1.00
10129;DHT22;5104;50.720;7.044;2023-02-28T07:24:31;-1.50;1.00
10129;DHT22;5104;50.720;7.044;2023-02-28T07:26:58;-1.40;1.00
10129;DHT22;5104;50.720;7.044;2023-02-28T07:29:26;-1.30;1.00
10129;DHT22;5104;50.720;7.044;2023-02-28T07:31:53;-1.20;1.00
10129;DHT22;5104;50.720;7.044;2023-02-28T07:34:22;-1.00;1.00
10129;DHT22;5104;50.720;7.044;2023-02-28T07:36:49;-0.90;1.00
10129;DHT22;5104;50.720;7.044;2023-02-28T07:39:19;-0.80;99.90
10129;DHT22;5104;50.720;7.044;2023-02-28T07:41:46;-0.70;99.90
10129;DHT22;5104;50.720;7.044;2023-02-28T07:44:13;-0.50;1.00
10129;DHT22;5104;50.720;7.044;2023-02-28T07:46:40;-0.40;1.00
10129;DHT22;5104;50.720;7.044;2023-02-28T07:49:07;-0.30;1.00
10129;DHT22;5104;50.720;7.044;2023-02-28T07:51:35;-0.10;99.90
10129;DHT22;5104;50.720;7.044;2023-02-28T07:54:02;0.00;99.90
10129;DHT22;5104;50.720;7.044;2023-02-28T07:56:29;0.00;1.00
10129;DHT22;5104;50.720;7.044;2023-02-28T07:58:56;0.20;16.30
10129;DHT22;5104;50.720;7.044;2023-02-28T08:01:23;0.30;1.00
10129;DHT22;5104;50.720;7.044;2023-02-28T08:03:50;1.10;1.00
10129;DHT22;5104;50.720;7.044;2023-02-28T08:06:20;2.00;99.90
10129;DHT22;5104;50.720;7.044;2023-02-28T08:08:49;2.40;1.00
10129;DHT22;5104;50.720;7.044;2023-02-28T08:11:17;2.50;1.00
10129;DHT22;5104;50.720;7.044;2023-02-28T08:13:45;2.30;1.00
10129;DHT22;5104;50.720;7.044;2023-02-28T08:16:13;2.10;1.00
10129;DHT22;5104;50.720;7.044;2023-02-28T08:18:42;1.80;1.00
10129;DHT22;5104;50.720;7.044;2023-02-28T08:21:10;1.40;1.00
10129;DHT22;5104;50.720;7.044;2023-02-28T08:23:37;1.30;1.00
10129;DHT22;5104;50.720;7.044;2023-02-28T08:26:06;1.40;1.00
10129;DHT22;5104;50.720;7.044;2023-02-28T08:28:33;1.50;1.00
10129;DHT22;5104;50.720;7.044;2023-02-28T08:31:00;1.50;1.00
10129;DHT22;5104;50.720;7.044;2023-02-28T08:33:27;1.50;1.00
10129;DHT22;5104;50.720;7.044;2023-02-28T08:35:54;1.50;1.00
10129;DHT22;5104;50.720;7.044;2023-02-28T08:38:22;1.60;1.00
10129;DHT22;5104;50.720;7.044;2023-02-28T08:40:49;1.70;1.00
10129;DHT22;5104;50.720;7.044;2023-02-28T08:43:17;1.80;1.00
10129;DHT22;5104;50.720;7.044;2023-02-28T08:45:44;2.10;1.00
10129;DHT22;5104;50.720;7.044;2023-02-28T08:48:11;2.40;99.90
10129;DHT22;5104;50.720;7.044;2023-02-28T08:50:39;2.70;99.90
10129;DHT22;5104;50.720;7.044;2023-02-28T08:53:06;2.70;99.90
10129;DHT22;5104;50.720;7.044;2023-02-28T08:55:32;2.70;99.90
10129;DHT22;5104;50.720;7.044;2023-02-28T08:57:59;2.60;99.90
10129;DHT22;5104;50.720;7.044;2023-02-28T09:00:28;2.60;99.90
10129;DHT22;5104;50.720;7.044;2023-02-28T09:02:55;2.70;99.90
10129;DHT22;5104;50.720;7.044;2023-02-28T09:05:22;2.50;99.90
10129;DHT22;5104;50.720;7.044;2023-02-28T09:07:49;2.50;99.90
10129;DHT22;5104;50.720;7.044;2023-02-28T09:10:17;2.50;99.90
10129;DHT22;5104;50.720;7.044;2023-02-28T09:12:44;2.60;99.90
10129;DHT22;5104;50.720;7.044;2023-02-28T09:15:12;2.70;99.90
10129;DHT22;5104;50.720;7.044;2023-02-28T09:17:41;2.60;99.90
10129;DHT22;5104;50.720;7.044;2023-02-28T09:20:09;2.70;99.90
10129;DHT22;5104;50.720;7.044;2023-02-28T09:22:36;2.90;99.90
10129;DHT22;5104;50.720;7.044;2023-02-28T09:25:04;3.00;99.90
10129;DHT22;5104;50.720;7.044;2023-02-28T09:27:31;3.10;96.00
10129;DHT22;5104;50.720;7.044;2023-02-28T09:29:58;3.00;92.80
10129;DHT22;5104;50.720;7.044;2023-02-28T09:32:25;3.10;99.90
10129;DHT22;5104;50.720;7.044;2023-02-28T09:34:54;3.20;95.40
10129;DHT22;5104;50.720;7.044;2023-02-28T09:37:20;3.20;99.90
10129;DHT22;5104;50.720;7.044;2023-02-28T09:39:48;3.20;99.90
10129;DHT22;5104;50.720;7.044;2023-02-28T09:42:21;3.00;87.90
10129;DHT22;5104;50.720;7.044;2023-02-28T09:44:51;2.90;76.60
10129;DHT22;5104;50.720;7.044;2023-02-28T09:47:25;2.70;64.30
10129;DHT22;5104;50.720;7.044;2023-02-28T09:49:56;2.70;67.90
10129;DHT22;5104;50.720;7.044;2023-02-28T09:52:27;2.90;58.10
10129;DHT22;5104;50.720;7.044;2023-02-28T09:54:55;3.20;48.20
10129;DHT22;5104;50.720;7.044;2023-02-28T09:57:29;3.30;30.20
10129;DHT22;5104;50.720;7.044;2023-02-28T10:00:07;3.50;30.00
10129;DHT22;5104;50.720;7.044;2023-02-28T10:03:04;3.70;29.40
10129;DHT22;5104;50.720;7.044;2023-02-28T10:05:37;3.70;1.70
10129;DHT22;5104;50.720;7.044;2023-02-28T10:08:12;3.80;1.00
10129;DHT22;5104;50.720;7.044;2023-02-28T10:10:41;3.90;30.30
10129;DHT22;5104;50.720;7.044;2023-02-28T10:13:16;3.90;1.00
10129;DHT22;5104;50.720;7.044;2023-02-28T10:15:45;3.70;1.00
10129;DHT22;5104;50.720;7.044;2023-02-28T10:18:19;3.80;1.00
10129;DHT22;5104;50.720;7.044;2023-02-28T10:20:49;3.90;1.00
10129;DHT22;5104;50.720;7.044;2023-02-28T10:23:21;3.90;1.00
10129;DHT22;5104;50.720;7.044;2023-02-28T10:25:53;4.00;1.00
10129;DHT22;5104;50.720;7.044;2023-02-28T10:28:20;4.00;1.00
10129;DHT22;5104;50.720;7.044;2023-02-28T10:30:49;4.10;1.00
10129;DHT22;5104;50.720;7.044;2023-02-28T10:33:22;4.40;1.00
10129;DHT22;5104;50.720;7.044;2023-02-28T10:35:52;4.30;1.00
10129;DHT22;5104;50.720;7.044;2023-02-28T10:38:21;4.10;1.00
10129;DHT22;5104;50.720;7.044;2023-02-28T10:40:48;4.30;1.00
10129;DHT22;5104;50.720;7.044;2023-02-28T10:43:22;4.70;1.00
10129;DHT22;5104;50.720;7.044;2023-02-28T10:45:58;5.00;1.00
10129;DHT22;5104;50.720;7.044;2023-02-28T10:48:30;5.10;1.00
10129;DHT22;5104;50.720;7.044;2023-02-28T10:51:00;4.90;1.00
10129;DHT22;5104;50.720;7.044;2023-02-28T10:53:33;5.00;1.00
10129;DHT22;5104;50.720;7.044;2023-02-28T10:56:03;5.10;1.00
10129;DHT22;5104;50.720;7.044;2023-02-28T10:58:46;5.30;1.00
10129;DHT22;5104;50.720;7.044;2023-02-28T11:01:14;5.40;1.00
10129;DHT22;5104;50.720;7.044;2023-02-28T11:03:42;5.40;1.00
10129;DHT22;5104;50.720;7.044;2023-02-28T11:06:15;5.50;1.00
10129;DHT22;5104;50.720;7.044;2023-02-28T11:08:47;5.60;1.00
10129;DHT22;5104;50.720;7.044;2023-02-28T11:11:16;5.10;1.00
10129;DHT22;5104;50.720;7.044;2023-02-28T11:13:45;4.90;1.00
10129;DHT22;5104;50.720;7.044;2023-02-28T11:16:13;5.10;1.00
10129;DHT22;5104;50.720;7.044;2023-02-28T11:18:44;5.10;1.00
10129;DHT22;5104;50.720;7.044;2023-02-28T11:21:21;4.90;1.00
10129;DHT22;5104;50.720;7.044;2023-02-28T11:23:51;4.70;1.00
10129;DHT22;5104;50.720;7.044;2023-02-28T11:26:37;4.60;1.00
10129;DHT22;5104;50.720;7.044;2023-02-28T11:29:11;4.90;1.00
10129;DHT22;5104;50.720;7.044;2023-02-28T11:31:40;4.90;1.00
10129;DHT22;5104;50.720;7.044;2023-02-28T11:34:24;5.10;1.00
10129;DHT22;5104;50.720;7.044;2023-02-28T11:36:56;5.30;1.00
10129;DHT22;5104;50.720;7.044;2023-02-28T11:39:24;5.10;1.00
10129;DHT22;5104;50.720;7.044;2023-02-28T11:42:04;4.80;1.00
10129;DHT22;5104;50.720;7.044;2023-02-28T11:44:51;5.10;1.00
10129;DHT22;5104;50.720;7.044;2023-02-28T11:47:32;5.20;1.00
10129;DHT22;5104;50.720;7.044;2023-02-28T11:50:22;5.20;1.00
10129;DHT22;5104;50.720;7.044;2023-02-28T11:52:56;5.40;1.00
10129;DHT22;5104;50.720;7.044;2023-02-28T11:55:28;5.40;1.00
10129;DHT22;5104;50.720;7.044;2023-02-28T11:58:23;5.40;1.00
10129;DHT22;5104;50.720;7.044;2023-02-28T12:01:05;5.30;1.00
10129;DHT22;5104;50.720;7.044;2023-02-28T12:03:49;5.40;1.00
10129;DHT22;5104;50.720;7.044;2023-02-28T12:06:23;5.50;1.00
10129;DHT22;5104;50.720;7.044;2023-02-28T12:09:14;5.50;1.00
10129;DHT22;5104;50.720;7.044;2023-02-28T12:11:51;5.60;1.00
10129;DHT22;5104;50.720;7.044;2023-02-28T12:17:26;5.60;1.00
10129;DHT22;5104;50.720;7.044;2023-02-28T12:20:06;5.70;1.00
10129;DHT22;5104;50.720;7.044;2023-02-28T12:22:40;5.60;1.00
10129;DHT22;5104;50.720;7.044;2023-02-28T12:28:24;5.70;1.00
10129;DHT22;5104;50.720;7.044;2023-02-28T12:30:57;5.40;1.00
10129;DHT22;5104;50.720;7.044;2023-02-28T12:33:31;5.40;1.00
10129;DHT22;5104;50.720;7.044;2023-02-28T12:36:04;5.30;1.00
10129;DHT22;5104;50.720;7.044;2023-02-28T12:38:37;5.40;1.00
10129;DHT22;5104;50.720;7.044;2023-02-28T12:41:12;5.40;1.00
10129;DHT22;5104;50.720;7.044;2023-02-28T12:43:44;5.50;1.00
10129;DHT22;5104;50.720;7.044;2023-02-28T12:46:16;5.60;1.00
10129;DHT22;5104;50.720;7.044;2023-02-28T12:48:47;5.70;1.00
10129;DHT22;5104;50.720;7.044;2023-02-28T12:51:16;5.60;1.00
10129;DHT22;5104;50.720;7.044;2023-02-28T12:53:54;5.60;1.00
10129;DHT22;5104;50.720;7.044;2023-02-28T12:56:32;5.60;1.00
10129;DHT22;5104;50.720;7.044;2023-02-28T12:59:04;5.70;1.00
10129;DHT22;5104;50.720;7.044;2023-02-28T13:05:02;5.80;1.00
10129;DHT22;5104;50.720;7.044;2023-02-28T13:07:54;6.00;1.00
10129;DHT22;5104;50.720;7.044;2023-02-28T13:10:23;5.90;1.00
10129;DHT22;5104;50.720;7.044;2023-02-28T13:12:53;6.00;1.00
10129;DHT22;5104;50.720;7.044;2023-02-28T13:15:26;6.10;1.00
10129;DHT22;5104;50.720;7.044;2023-02-28T13:17:56;6.00;1.00
10129;DHT22;5104;50.720;7.044;2023-02-28T13:20:25;6.00;1.00
10129;DHT22;5104;50.720;7.044;2023-02-28T13:22:54;6.00;1.00
10129;DHT22;5104;50.720;7.044;2023-02-28T13:25:52;6.10;1.00
10129;DHT22;5104;50.720;7.044;2023-02-28T13:28:56;6.10;1.00
10129;DHT22;5104;50.720;7.044;2023-02-28T13:31:25;5.90;1.00
10129;DHT22;5104;50.720;7.044;2023-02-28T13:34:14;5.90;1.00
10129;DHT22;5104;50.720;7.044;2023-02-28T13:36:41;5.80;1.00
10129;DHT22;5104;50.720;7.044;2023-02-28T13:39:46;5.90;1.00
10129;DHT22;5104;50.720;7.044;2023-02-28T13:42:24;5.90;1.00
10129;DHT22;5104;50.720;7.044;2023-02-28T13:45:25;6.00;1.00
10129;DHT22;5104;50.720;7.044;2023-02-28T13:47:56;6.00;1.00
10129;DHT22;5104;50.720;7.044;2023-02-28T13:50:30;6.00;1.00
10129;DHT22;5104;50.720;7.044;2023-02-28T13:53:16;6.00;1.00
10129;DHT22;5104;50.720;7.044;2023-02-28T13:55:56;6.00;1.00
10129;DHT22;5104;50.720;7.044;2023-02-28T13:58:41;6.10;1.00
10129;DHT22;5104;50.720;7.044;2023-02-28T14:01:25;6.20;1.00
10129;DHT22;5104;50.720;7.044;2023-02-28T14:04:21;6.10;1.00
10129;DHT22;5104;50.720;7.044;2023-02-28T14:06:53;6.20;1.00
10129;DHT22;5104;50.720;7.044;2023-02-28T14:09:24;6.30;1.00
10129;DHT22;5104;50.720;7.044;2023-02-28T14:11:52;6.30;1.00
10129;DHT22;5104;50.720;7.044;2023-02-28T14:14:54;6.20;1.00
10129;DHT22;5104;50.720;7.044;2023-02-28T14:17:22;6.00;1.00
10129;DHT22;5104;50.720;7.044;2023-02-28T14:19:50;6.10;1.00
10129;DHT22;5104;50.720;7.044;2023-02-28T14:22:41;6.00;1.00
10129;DHT22;5104;50.720;7.044;2023-02-28T14:25:17;6.10;1.00
10129;DHT22;5104;50.720;7.044;2023-02-28T14:27:48;5.90;1.00
10129;DHT22;5104;50.720;7.044;2023-02-28T14:30:57;6.00;1.00
10129;DHT22;5104;50.720;7.044;2023-02-28T14:33:57;6.10;1.00
10129;DHT22;5104;50.720;7.044;2023-02-28T14:36:32;6.20;1.00
10129;DHT22;5104;50.720;7.044;2023-02-28T14:39:01;6.20;1.00
10129;DHT22;5104;50.720;7.044;2023-02-28T14:41:33;6.20;1.00
10129;DHT22;5104;50.720;7.044;2023-02-28T14:44:12;6.10;1.00
10129;DHT22;5104;50.720;7.044;2023-02-28T14:46:41;6.10;1.00
10129;DHT22;5104;50.720;7.044;2023-02-28T14:49:18;6.10;1.00
10129;DHT22;5104;50.720;7.044;2023-02-28T14:51:48;6.00;1.00
10129;DHT22;5104;50.720;7.044;2023-02-28T14:54:17;5.90;1.00
10129;DHT22;5104;50.720;7.044;2023-02-28T14:56:50;5.90;1.00
10129;DHT22;5104;50.720;7.044;2023-02-28T14:59:28;5.90;1.00
10129;DHT22;5104;50.720;7.044;2023-02-28T15:02:20;6.00;1.00
10129;DHT22;5104;50.720;7.044;2023-02-28T15:04:55;6.00;1.00
10129;DHT22;5104;50.720;7.044;2023-02-28T15:07:24;6.10;1.00
10129;DHT22;5104;50.720;7.044;2023-02-28T15:10:09;6.10;1.00
10129;DHT22;5104;50.720;7.044;2023-02-28T15:12:37;6.10;1.00
10129;DHT22;5104;50.720;7.044;2023-02-28T15:15:05;6.00;1.00
10129;DHT22;5104;50.720;7.044;2023-02-28T15:17:34;6.00;1.00
10129;DHT22;5104;50.720;7.044;2023-02-28T15:20:02;6.10;1.00
10129;DHT22;5104;50.720;7.044;2023-02-28T15:22:34;5.90;1.00
10129;DHT22;5104;50.720;7.044;2023-02-28T15:25:04;5.80;1.00
10129;DHT22;5104;50.720;7.044;2023-02-28T15:27:34;5.90;1.00
10129;DHT22;5104;50.720;7.044;2023-02-28T15:30:06;6.00;1.00
10129;DHT22;5104;50.720;7.044;2023-02-28T15:32:35;6.10;1.00
10129;DHT22;5104;50.720;7.044;2023-02-28T15:35:18;6.10;1.00
10129;DHT22;5104;50.720;7.044;2023-02-28T15:37:51;6.10;1.00
10129;DHT22;5104;50.720;7.044;2023-02-28T15:40:25;6.10;1.00
10129;DHT22;5104;50.720;7.044;2023-02-28T15:43:14;6.20;1.00
10129;DHT22;5104;50.720;7.044;2023-02-28T15:45:45;6.10;1.00
10129;DHT22;5104;50.720;7.044;2023-02-28T15:48:18;6.10;1.00
10129;DHT22;5104;50.720;7.044;2023-02-28T15:50:51;6.30;1.00
10129;DHT22;5104;50.720;7.044;2023-02-28T15:53:22;6.70;1.00
10129;DHT22;5104;50.720;7.044;2023-02-28T15:56:00;6.60;1.00
10129;DHT22;5104;50.720;7.044;2023-02-28T15:58:28;6.40;1.00
10129;DHT22;5104;50.720;7.044;2023-02-28T16:01:07;6.10;1.00
10129;DHT22;5104;50.720;7.044;2023-02-28T16:03:40;5.90;1.00
10129;DHT22;5104;50.720;7.044;2023-02-28T16:06:35;5.80;1.00
10129;DHT22;5104;50.720;7.044;2023-02-28T16:09:06;5.70;1.00
10129;DHT22;5104;50.720;7.044;2023-02-28T16:11:36;5.70;1.00
10129;DHT22;5104;50.720;7.044;2023-02-28T16:14:04;5.70;1.00
10129;DHT22;5104;50.720;7.044;2023-02-28T16:16:32;5.70;1.00
10129;DHT22;5104;50.720;7.044;2023-02-28T16:18:59;5.70;1.00
10129;DHT22;5104;50.720;7.044;2023-02-28T16:21:26;5.60;1.00
10129;DHT22;5104;50.720;7.044;2023-02-28T16:23:53;5.50;1.00
10129;DHT22;5104;50.720;7.044;2023-02-28T16:26:25;5.50;1.00
10129;DHT22;5104;50.720;7.044;2023-02-28T16:28:53;5.40;1.00
10129;DHT22;5104;50.720;7.044;2023-02-28T16:31:20;5.30;1.00
10129;DHT22;5104;50.720;7.044;2023-02-28T16:33:47;5.30;1.00
10129;DHT22;5104;50.720;7.044;2023-02-28T16:36:16;5.20;1.00
10129;DHT22;5104;50.720;7.044;2023-02-28T16:38:43;5.10;1.00
10129;DHT22;5104;50.720;7.044;2023-02-28T16:41:13;5.00;1.00
10129;DHT22;5104;50.720;7.044;2023-02-28T16:43:46;5.00;1.00
10129;DHT22;5104;50.720;7.044;2023-02-28T16:46:15;5.00;1.00
10129;DHT22;5104;50.720;7.044;2023-02-28T16:48:42;4.90;1.00
10129;DHT22;5104;50.720;7.044;2023-02-28T16:51:12;4.80;1.00
10129;DHT22;5104;50.720;7.044;2023-02-28T16:53:39;4.70;1.00
10129;DHT22;5104;50.720;7.044;2023-02-28T16:56:09;4.60;1.00
10129;DHT22;5104;50.720;7.044;2023-02-28T16:58:41;4.50;1.00
10129;DHT22;5104;50.720;7.044;2023-02-28T17:01:09;4.50;1.00